Thursday, July 19, 2018, 5:34 AM GMT
Back to Local

CWNE, North Point, Prince Edward Island

Location: , , Canada Lat: 47.083
Local Time: 5:34 AM GMT ( 5:34 GMT) Lon: -64
Time Zone: GMT Elev: 49 ft

Show me the last for .
Show Coded

Time T Td Feel RH Dir Speed Gust Alt SLP Vis Weather Sky Remarks
2018-07-19 05:00 64 54 - 71 330° 14 - - 29.85 0 None
2018-07-19 04:00 59 58 - 96 220° 2 - - 29.85 0 None
2018-07-19 03:00 62 60 - 94 150° 3 - - 29.84 0 None
2018-07-19 02:00 63 61 - 95 100° 3 - - 29.83 0 None
2018-07-19 01:00 64 62 - 95 100° 7 - - 29.82 0 None
2018-07-19 00:00 65 62 - 92 80° 10 - - 29.79 0 None
2018-07-18 23:00 67 62 - 84 70° 9 - - 29.77 0 None
2018-07-18 22:00 69 63 - 79 50° 9 - - 29.75 0 None
2018-07-18 21:00 71 61 76 70 230° 5 - - 29.73 0 None
2018-07-18 20:00 71 65 76 81 240° 6 - - 29.72 0 None
2018-07-18 19:00 72 66 76 82 250° 8 - - 29.72 0 None
2018-07-18 18:00 70 65 - 85 270° 9 - - 29.70 0 None
2018-07-18 17:00 68 64 - 88 290° 10 - - 29.70 0 None
2018-07-18 16:00 67 66 - 95 280° 12 - - 29.68 0 None
2018-07-18 15:00 67 66 - 96 240° 13 - - 29.67 0 Peak wind: 19 mph (17 kts) from 240° at 21 min
2018-07-18 14:00 68 66 - 94 250° 15 - - 29.67 0 1-hr Precip Total: 0.01"
2018-07-18 13:00 68 67 - 95 230° 13 - - 29.66 0 None
2018-07-18 12:00 69 67 - 91 210° 10 - - 29.67 0 None
2018-07-18 11:00 69 67 - 93 190° 9 - - 29.66 0 None
2018-07-18 10:00 68 67 - 94 190° 8 - - 29.66 0 None
2018-07-18 09:00 68 67 - 94 220° 14 - - 29.65 0 Peak wind: 23 mph (20 kts) from 210° at 08 min
2018-07-18 08:00 69 67 - 92 210° 15 22 - 29.65 0 Peak wind: 23 mph (20 kts) from 220° at 37 min
2018-07-18 07:00 69 67 - 93 210° 15 21 - 29.65 0 Peak wind: 20 mph (18 kts) from 200° at 51 min
2018-07-18 06:00 70 68 - 94 200° 14 - - 29.65 0 Peak wind: 21 mph (19 kts) from 180° at 34 min

Support USWX by starting your Amazon purchase here.